Time;durP1;ratioP1;P1;durP2;ratioP2;P2;SDS_P1;SDS_P2;PMS_P1;PMS_P2;Temp;Humidity;BMP_temperature;BMP_pressure;BME280_temperature;BME280_humidity;BME280_pressure;Samples;Min_cycle;Max_cycle;Signal;HPM_P1;HPM_P2
2022/08/04 00:07:34;;;;;;;11.20;10.30;;;;;;;18.55;69.08;99704.64;447055;1274;143128;-65
2022/08/04 00:17:54;;;;;;;13.40;12.10;;;;;;;18.41;69.57;99702.33;435668;1273;142193;-65
2022/08/04 00:28:01;;;;;;;12.70;11.60;;;;;;;18.29;70.00;99701.11;444207;1274;143591;-64
2022/08/04 00:38:08;;;;;;;14.00;12.60;;;;;;;18.15;70.58;99698.35;446091;1274;145625;-64
2022/08/04 00:48:29;;;;;;;14.40;13.20;;;;;;;18.09;70.89;99703.83;435852;1274;143344;-64
2022/08/04 00:58:49;;;;;;;14.10;12.80;;;;;;;18.02;71.31;99705.35;440120;1274;142236;-64
2022/08/04 01:09:11;;;;;;;16.30;14.70;;;;;;;17.86;71.59;99710.94;446541;1274;142888;-64
2022/08/04 01:20:01;;;;;;;16.70;14.90;;;;;;;17.76;72.11;99715.53;429712;1274;143492;-65
2022/08/04 01:30:08;;;;;;;16.70;15.00;;;;;;;17.60;72.53;99713.25;429854;1274;142992;-65
2022/08/04 01:40:16;;;;;;;16.90;15.30;;;;;;;17.48;73.02;99720.56;440097;1274;143233;-65
2022/08/04 01:50:22;;;;;;;16.40;14.80;;;;;;;17.42;73.46;99718.83;446320;1273;143894;-64
2022/08/04 02:00:29;;;;;;;14.90;13.50;;;;;;;17.36;73.77;99719.35;446863;1274;142708;-64
2022/08/04 02:11:00;;;;;;;16.70;15.10;;;;;;;17.23;73.74;99720.52;446439;1273;142944;-65
2022/08/04 02:21:07;;;;;;;18.10;16.30;;;;;;;17.10;74.15;99713.70;435148;1274;142973;-64
2022/08/04 02:31:26;;;;;;;17.60;16.00;;;;;;;16.99;74.46;99716.05;430770;1274;142260;-64
2022/08/04 02:41:35;;;;;;;20.40;18.60;;;;;;;16.92;75.35;99709.20;429762;1274;142175;-64
2022/08/04 02:51:43;;;;;;;19.20;17.50;;;;;;;16.87;75.61;99703.16;430300;1274;143265;-64
2022/08/04 03:01:49;;;;;;;22.90;20.80;;;;;;;16.78;76.13;99701.46;429839;1272;142585;-64
2022/08/04 03:12:32;;;;;;;22.10;20.20;;;;;;;16.79;76.92;99701.53;430746;1274;146190;-64
2022/08/04 03:23:05;;;;;;;23.80;21.60;;;;;;;16.81;77.34;99706.14;429381;1274;146213;-66
2022/08/04 03:34:00;;;;;;;24.70;22.50;;;;;;;16.88;77.69;99710.48;430892;1273;143708;-66
2022/08/04 03:44:44;;;;;;;24.90;22.70;;;;;;;17.02;77.85;99716.11;430547;1274;143378;-65
2022/08/04 03:55:30;;;;;;;22.80;20.60;;;;;;;17.23;77.91;99724.75;443532;1273;143284;-65
2022/08/04 04:06:17;;;;;;;22.90;21.00;;;;;;;17.52;77.58;99729.79;446257;1274;143767;-67
2022/08/04 04:16:37;;;;;;;23.80;21.30;;;;;;;17.92;76.90;99734.79;439353;1273;142879;-66
2022/08/04 04:26:55;;;;;;;18.60;17.00;;;;;;;18.76;76.20;99740.23;429796;1274;145187;-67
2022/08/04 04:37:22;;;;;;;15.70;14.30;;;;;;;24.06;70.37;99740.49;430793;1274;145075;-65
2022/08/04 04:47:37;;;;;;;15.30;14.10;;;;;;;24.08;63.03;99746.11;431030;1274;142427;-66
2022/08/04 04:58:04;;;;;;;15.10;13.80;;;;;;;22.40;64.35;99744.59;430905;1274;142459;-66
2022/08/04 05:08:43;;;;;;;13.80;12.50;;;;;;;25.25;62.94;99738.35;429872;1274;144027;-64
2022/08/04 05:19:03;;;;;;;15.20;10.50;;;;;;;32.91;52.67;99731.59;429852;1274;143330;-62
2022/08/04 05:29:13;;;;;;;8.60;7.90;;;;;;;37.99;44.09;99728.20;429280;1274;146466;-63
2022/08/04 05:39:24;;;;;;;8.30;7.70;;;;;;;40.42;37.63;99731.27;432418;1274;145106;-62
2022/08/04 05:49:36;;;;;;;7.30;6.80;;;;;;;42.47;33.73;99740.02;430726;1274;145093;-64
2022/08/04 05:59:45;;;;;;;6.90;6.30;;;;;;;44.67;30.17;99739.73;431080;1274;141235;-64
2022/08/04 06:09:51;;;;;;;6.00;5.60;;;;;;;46.95;27.35;99741.82;432178;1274;142155;-64
2022/08/04 06:19:59;;;;;;;6.50;5.70;;;;;;;49.23;24.62;99745.05;430232;1274;143403;-65
2022/08/04 06:30:27;;;;;;;5.40;5.00;;;;;;;51.32;22.18;99743.41;430925;1273;141322;-64
2022/08/04 06:40:34;;;;;;;7.40;6.10;;;;;;;53.00;20.51;99747.92;431581;1274;141508;-65
2022/08/04 06:50:42;;;;;;;5.60;5.20;;;;;;;53.17;19.10;99752.06;434741;1274;140797;-65
2022/08/04 07:01:10;;;;;;;6.60;5.90;;;;;;;54.04;17.95;99749.23;433397;1274;140970;-64
2022/08/04 07:11:17;;;;;;;6.70;6.20;;;;;;;54.61;17.23;99745.99;430208;1274;141964;-64
2022/08/04 07:21:26;;;;;;;8.50;7.20;;;;;;;55.14;16.30;99750.70;430339;1274;141703;-65
2022/08/04 07:31:33;;;;;;;8.80;8.30;;;;;;;55.60;15.67;99749.96;430693;1274;140922;-65
2022/08/04 07:41:43;;;;;;;10.40;9.70;;;;;;;56.33;14.65;99758.40;431424;1274;141681;-64
2022/08/04 07:51:54;;;;;;;12.50;11.80;;;;;;;57.22;14.16;99757.70;431368;1274;144340;-62
2022/08/04 08:02:02;;;;;;;14.60;13.80;;;;;;;58.06;13.43;99751.63;430657;1274;144065;-64
2022/08/04 08:12:10;;;;;;;5.60;5.30;;;;;;;57.70;12.49;99739.18;431784;1274;141423;-64
2022/08/04 08:22:37;;;;;;;3.20;3.00;;;;;;;53.56;13.56;99721.59;432194;1274;141681;-66
2022/08/04 08:32:43;;;;;;;3.50;3.10;;;;;;;46.50;16.84;99714.38;432938;1274;152987;-64
2022/08/04 08:43:22;;;;;;;3.50;3.30;;;;;;;41.39;19.93;99722.00;432158;1274;187617;-64
2022/08/04 08:54:29;;;;;;;3.80;3.50;;;;;;;38.53;22.39;99727.84;432670;1274;145326;-63
2022/08/04 09:05:04;;;;;;;3.60;3.30;;;;;;;36.95;24.31;99723.58;430822;1274;143246;-67
2022/08/04 09:15:15;;;;;;;4.30;3.80;;;;;;;36.90;24.35;99725.33;433439;1274;141972;-63
2022/08/04 09:25:25;;;;;;;5.20;3.70;;;;;;;35.98;25.22;99729.89;430961;1274;143051;-64
2022/08/04 09:35:40;;;;;;;3.90;3.60;;;;;;;35.23;26.40;99730.79;441193;1274;143315;-65
2022/08/04 09:45:54;;;;;;;3.40;3.00;;;;;;;34.41;26.99;99725.40;446344;1274;142692;-65
2022/08/04 09:56:08;;;;;;;4.90;4.30;;;;;;;33.84;27.53;99726.60;445949;1273;142317;-65
2022/08/04 10:06:42;;;;;;;3.50;3.20;;;;;;;33.37;28.07;99712.95;446672;1274;144388;-66
2022/08/04 10:16:57;;;;;;;3.70;3.00;;;;;;;32.79;28.58;99711.02;446049;1274;143399;-64
2022/08/04 10:27:09;;;;;;;3.20;3.00;;;;;;;32.42;29.18;99707.70;447068;1273;142533;-66
2022/08/04 10:37:24;;;;;;;3.80;3.50;;;;;;;31.55;29.61;99706.48;444372;1274;141441;-63
2022/08/04 10:48:00;;;;;;;3.00;2.80;;;;;;;30.52;30.75;99696.11;442228;1274;141443;-65
2022/08/04 10:58:11;;;;;;;3.20;3.00;;;;;;;30.09;31.49;99687.58;443194;1274;142228;-64
2022/08/04 11:08:21;;;;;;;2.80;2.60;;;;;;;29.71;31.93;99684.83;446311;1274;142484;-65
2022/08/04 11:18:39;;;;;;;3.70;3.30;;;;;;;29.71;32.55;99672.02;447149;1274;142578;-65
2022/08/04 11:28:58;;;;;;;3.10;2.90;;;;;;;29.75;32.88;99678.06;445421;1274;1277984;-64
2022/08/04 11:39:13;;;;;;;4.70;2.90;;;;;;;29.38;32.70;99680.73;447183;1274;142685;-65
2022/08/04 11:49:29;;;;;;;4.60;2.80;;;;;;;29.28;32.91;99678.43;437143;1274;141896;-64
2022/08/04 11:59:37;;;;;;;4.00;2.70;;;;;;;29.40;32.38;99667.23;446142;1274;142636;-66
2022/08/04 12:09:52;;;;;;;2.70;2.50;;;;;;;29.44;32.47;99664.39;447150;1274;141918;-64
2022/08/04 12:20:03;;;;;;;3.10;2.50;;;;;;;29.46;32.63;99664.75;446100;1274;142168;-65
2022/08/04 12:30:34;;;;;;;3.70;3.20;;;;;;;29.50;32.45;99655.02;442828;1273;141957;-64
2022/08/04 12:41:02;;;;;;;2.70;2.50;;;;;;;29.43;32.30;99652.79;443855;1274;142914;-64
2022/08/04 12:51:10;;;;;;;2.90;2.60;;;;;;;29.30;32.65;99637.20;446944;1274;141951;-64
2022/08/04 13:01:37;;;;;;;3.00;2.70;;;;;;;29.25;32.70;99634.08;446883;1274;142758;-64
2022/08/04 13:12:06;;;;;;;2.20;2.00;;;;;;;29.28;33.04;99635.95;446813;1274;143159;-64
2022/08/04 13:22:15;;;;;;;2.70;2.20;;;;;;;29.27;33.08;99629.59;447139;1274;142354;-64
2022/08/04 13:32:23;;;;;;;4.80;2.90;;;;;;;29.15;32.78;99613.50;446429;1274;142498;-65
2022/08/04 13:42:30;;;;;;;2.90;2.50;;;;;;;29.09;33.23;99614.74;444677;1274;141955;-64
2022/08/04 13:52:34;;;;;;;;;;;;;;;29.05;33.89;99606.78;439776;1273;143465;-64
2022/08/04 14:02:45;;;;;;;4.00;3.10;;;;;;;29.00;34.12;99597.92;431194;1274;127396;-65
2022/08/04 14:12:53;;;;;;;2.40;2.20;;;;;;;28.99;34.33;99596.90;431157;1274;141766;-65
2022/08/04 14:23:02;;;;;;;2.90;2.70;;;;;;;28.94;34.23;99589.73;430030;1274;141757;-64
2022/08/04 14:33:10;;;;;;;2.60;2.40;;;;;;;28.98;33.91;99581.95;430249;1274;141137;-63
2022/08/04 14:43:43;;;;;;;5.80;2.70;;;;;;;28.92;34.08;99575.55;430448;1274;142473;-65
2022/08/04 14:53:50;;;;;;;4.00;3.00;;;;;;;28.86;34.33;99568.27;431080;1274;142106;-65
2022/08/04 15:03:57;;;;;;;3.40;3.00;;;;;;;28.77;34.73;99564.13;430183;1272;141210;-63
2022/08/04 15:14:03;;;;;;;6.60;3.10;;;;;;;28.72;34.76;99559.91;446276;1274;142898;-65
2022/08/04 15:24:11;;;;;;;3.20;2.90;;;;;;;28.74;34.92;99562.23;440556;1274;143188;-64
2022/08/04 15:34:17;;;;;;;3.10;2.80;;;;;;;28.76;35.11;99558.68;446942;1273;142452;-65
2022/08/04 15:44:54;;;;;;;2.60;2.50;;;;;;;28.73;34.93;99554.97;442476;1273;141351;-63
2022/08/04 15:55:32;;;;;;;3.20;3.00;;;;;;;28.66;35.14;99553.17;429871;1274;140716;-64
2022/08/04 16:05:40;;;;;;;3.80;3.00;;;;;;;28.59;35.39;99544.13;432290;1274;140416;-63
2022/08/04 16:15:50;;;;;;;3.50;3.20;;;;;;;28.48;35.04;99538.26;431066;1273;142519;-66
2022/08/04 16:25:55;;;;;;;4.90;2.80;;;;;;;28.36;35.50;99539.79;430678;1274;142360;-65
2022/08/04 16:36:02;;;;;;;3.20;2.60;;;;;;;28.22;35.84;99535.73;431108;1274;141098;-65
2022/08/04 16:46:41;;;;;;;2.90;2.70;;;;;;;28.08;36.16;99538.05;431849;1274;145276;-67
2022/08/04 16:57:11;;;;;;;4.80;3.00;;;;;;;27.93;36.30;99534.58;430346;1274;144408;-64
2022/08/04 17:07:16;;;;;;;4.00;3.00;;;;;;;27.77;36.23;99532.65;431945;1274;141816;-63
2022/08/04 17:17:24;;;;;;;9.20;3.30;;;;;;;27.51;36.37;99541.71;429818;1274;141655;-63
2022/08/04 17:28:03;;;;;;;4.80;3.20;;;;;;;27.41;36.90;99542.94;431812;1274;143633;-65
2022/08/04 17:38:35;;;;;;;5.30;2.90;;;;;;;27.21;36.99;99541.77;430753;1274;141555;-66
2022/08/04 17:49:00;;;;;;;3.60;3.30;;;;;;;26.78;37.78;99545.69;431135;1274;146237;-64
2022/08/04 17:59:15;;;;;;;6.70;3.20;;;;;;;26.41;38.61;99543.27;430993;1273;141251;-64
2022/08/04 18:09:43;;;;;;;6.90;3.40;;;;;;;26.02;39.33;99541.60;430586;1274;141343;-64
2022/08/04 18:20:13;;;;;;;5.70;3.20;;;;;;;25.65;39.94;99546.96;429411;1274;141581;-65
2022/08/04 18:30:21;;;;;;;3.80;2.80;;;;;;;25.24;40.65;99553.38;433868;1274;142556;-64
2022/08/04 18:40:47;;;;;;;4.40;3.40;;;;;;;24.89;41.45;99567.77;430260;1273;141255;-64
2022/08/04 18:50:59;;;;;;;5.60;4.10;;;;;;;24.59;42.04;99567.34;430336;1273;141496;-66
2022/08/04 19:01:25;;;;;;;4.70;3.40;;;;;;;24.29;42.79;99573.06;431867;1274;141942;-65
2022/08/04 19:11:35;;;;;;;3.50;2.90;;;;;;;24.00;43.28;99571.36;430952;1273;145970;-64
2022/08/04 19:21:59;;;;;;;5.50;3.40;;;;;;;23.73;43.90;99574.42;430801;1274;141446;-64
2022/08/04 19:32:25;;;;;;;6.00;4.00;;;;;;;23.46;44.40;99573.71;429996;1274;141803;-64
2022/08/04 19:42:31;;;;;;;7.50;4.60;;;;;;;23.19;44.95;99579.48;430892;1274;141301;-65
2022/08/04 19:52:37;;;;;;;6.30;4.00;;;;;;;22.92;45.59;99588.33;430251;1274;142944;-64
2022/08/04 20:02:43;;;;;;;5.80;3.70;;;;;;;22.66;46.24;99595.23;430691;1274;141828;-65
2022/08/04 20:12:49;;;;;;;5.70;3.80;;;;;;;22.46;46.73;99594.83;430282;1274;142464;-63
2022/08/04 20:23:00;;;;;;;6.00;5.40;;;;;;;22.26;46.86;99601.34;429682;1274;144803;-65
2022/08/04 20:33:09;;;;;;;6.20;4.80;;;;;;;22.05;47.57;99606.59;429886;1274;140721;-64
2022/08/04 20:43:20;;;;;;;8.30;5.50;;;;;;;21.82;48.03;99604.69;430237;1274;141575;-64
2022/08/04 20:53:26;;;;;;;6.00;5.40;;;;;;;21.60;48.56;99607.90;429561;1274;184416;-63
2022/08/04 21:14:15;;;;;;;5.20;4.70;;;;;;;21.27;49.13;99610.44;430838;1274;141878;-63
2022/08/04 21:24:25;;;;;;;6.80;5.10;;;;;;;21.11;49.46;99606.43;429467;1274;141874;-65
2022/08/04 21:34:32;;;;;;;5.80;5.30;;;;;;;21.01;49.52;99601.84;430413;1274;143737;-67
2022/08/04 21:44:44;;;;;;;7.50;5.70;;;;;;;20.90;49.91;99604.42;432399;1274;150858;-63
2022/08/04 21:54:50;;;;;;;6.00;5.50;;;;;;;20.83;50.12;99605.17;430804;1274;141627;-67
2022/08/04 22:04:59;;;;;;;5.40;4.90;;;;;;;20.67;50.52;99600.63;431045;1274;146448;-64
2022/08/04 22:15:12;;;;;;;5.70;4.70;;;;;;;20.49;51.04;99600.59;430035;1274;145376;-66
2022/08/04 22:25:39;;;;;;;5.30;4.90;;;;;;;20.28;51.48;99597.35;430283;1275;163450;-64
2022/08/04 22:35:49;;;;;;;7.10;5.80;;;;;;;20.06;52.28;99588.84;430739;1274;142045;-64
2022/08/04 22:45:56;;;;;;;5.60;4.80;;;;;;;19.87;52.73;99583.77;430122;1274;142662;-65
2022/08/04 22:56:03;;;;;;;7.10;5.30;;;;;;;19.67;53.24;99584.23;429374;1274;142449;-66
2022/08/04 23:06:15;;;;;;;7.10;6.30;;;;;;;19.50;53.94;99579.80;429980;1274;142091;-63
2022/08/04 23:16:29;;;;;;;6.80;6.20;;;;;;;19.32;54.54;99572.19;430019;1274;142139;-64
2022/08/04 23:26:37;;;;;;;6.00;5.50;;;;;;;19.18;55.01;99570.23;430800;1274;1244048;-62
2022/08/04 23:36:46;;;;;;;5.90;5.40;;;;;;;19.01;55.45;99562.00;431371;1274;154774;-62
2022/08/04 23:46:56;;;;;;;7.30;5.90;;;;;;;18.84;55.89;99560.52;430662;1274;142895;-62
2022/08/04 23:57:02;;;;;;;6.20;5.70;;;;;;;18.69;56.30;99555.66;432489;1273;143030;-63
